This is the latest recevied weather packets stored in our database for station/object KC1HBM. If no packets are shown the sender has not sent any weather packets the latest 10 day(s).
| Time | Temp. | Humidity | Pressure | Rain* | Wind** | Luminosity | Snow |
|---|---|---|---|---|---|---|---|
| 1777201992 | 8.33° C | 69% | 1017.3 hPa | 0 mm | - | 77 W/m² | - |
| 1777201688 | 8.33° C | 71% | 1017.5 hPa | 0 mm | - | 72 W/m² | - |
| 1777201384 | 8.33° C | 69% | 1017.2 hPa | 0 mm | - | 69 W/m² | - |
| 1777201079 | 8.33° C | 68% | 1017.2 hPa | 0 mm | - | 61 W/m² | - |
| 1777200776 | 9.44° C | 66% | 1017.2 hPa | 0 mm | - | 60 W/m² | - |
| 1777200471 | 8.33° C | 68% | 1017.1 hPa | 0 mm | - | 58 W/m² | - |
| 1777200167 | 7.78° C | 69% | 1017.1 hPa | 0 mm | - | 54 W/m² | - |
| 1777199864 | 7.22° C | 71% | 1016.9 hPa | 0 mm | - | 49 W/m² | - |
| 1777199564 | 6.11° C | 76% | 1016.7 hPa | 0 mm | - | 44 W/m² | - |
| 1777199258 | 5.56° C | 80% | 1016.8 hPa | 0 mm | - | 39 W/m² | - |
| 1777198953 | 3.89° C | 84% | 1016.6 hPa | 0 mm | - | 32 W/m² | - |
| 1777198650 | 3.33° C | 87% | 1016.6 hPa | 0 mm | - | 29 W/m² | - |
| 1777198348 | 2.22° C | 89% | 1016.6 hPa | 0 mm | - | 20 W/m² | - |
| 1777198038 | 1.11° C | 90% | 1016.6 hPa | 0 mm | - | 16 W/m² | - |
| 1777197734 | 1.11° C | 90% | 1016.5 hPa | 0 mm | - | 6 W/m² | - |
| 1777197429 | 1.11° C | 90% | 1016.2 hPa | 0 mm | - | 3 W/m² | - |
| 1777197126 | 1.11° C | 90% | 1016.4 hPa | 0 mm | - | 2 W/m² | - |
| 1777196821 | 1.11° C | 90% | 1016.4 hPa | 0 mm | - | 0 W/m² | - |
| 1777196518 | 1.11° C | 90% | 1016.4 hPa | 0 mm | - | 0 W/m² | - |
| 1777196215 | 1.11° C | 90% | 1016.3 hPa | 0 mm | - | 0 W/m² | - |
| 1777195911 | 0.56° C | 90% | 1016.2 hPa | 0 mm | - | 0 W/m² | - |
| 1777195606 | 0.56° C | 90% | 1016.3 hPa | 0 mm | - | 0 W/m² | - |
| 1777195302 | 1.11° C | 90% | 1016.2 hPa | 0 mm | - | 0 W/m² | - |
| 1777194999 | 1.11° C | 90% | 1016.5 hPa | 0 mm | - | 0 W/m² | - |
| 1777194698 | 1.11° C | 90% | 1016.4 hPa | 0 mm | - | 0 W/m² | - |
* Rain latest hour (hover to see other rain measurements)
** Current wind speed in m/s (hover to see current wind gust speed)